sensor_id;sensor_type;location;lat;lon;timestamp;temperature;humidity
13462;DHT22;6803;45.264;5.468;2023-06-10T00:02:29;17.10;99.90
13462;DHT22;6803;45.264;5.468;2023-06-10T00:04:59;17.00;99.90
13462;DHT22;6803;45.264;5.468;2023-06-10T00:07:30;17.00;99.90
13462;DHT22;6803;45.264;5.468;2023-06-10T00:10:01;17.00;99.90
13462;DHT22;6803;45.264;5.468;2023-06-10T00:12:34;17.00;99.90
13462;DHT22;6803;45.264;5.468;2023-06-10T00:15:09;17.00;99.90
13462;DHT22;6803;45.264;5.468;2023-06-10T00:17:40;16.90;99.90
13462;DHT22;6803;45.264;5.468;2023-06-10T00:20:13;16.90;99.90
13462;DHT22;6803;45.264;5.468;2023-06-10T00:22:43;16.90;99.90
13462;DHT22;6803;45.264;5.468;2023-06-10T00:25:15;16.90;99.90
13462;DHT22;6803;45.264;5.468;2023-06-10T00:27:46;16.90;99.90
13462;DHT22;6803;45.264;5.468;2023-06-10T00:30:17;16.90;99.90
13462;DHT22;6803;45.264;5.468;2023-06-10T00:32:48;16.90;99.90
13462;DHT22;6803;45.264;5.468;2023-06-10T00:35:19;16.90;99.90
13462;DHT22;6803;45.264;5.468;2023-06-10T00:37:49;16.90;99.90
13462;DHT22;6803;45.264;5.468;2023-06-10T00:40:20;17.00;99.90
13462;DHT22;6803;45.264;5.468;2023-06-10T00:42:51;17.00;99.90
13462;DHT22;6803;45.264;5.468;2023-06-10T00:45:22;17.00;99.90
13462;DHT22;6803;45.264;5.468;2023-06-10T00:47:52;17.10;99.90
13462;DHT22;6803;45.264;5.468;2023-06-10T00:50:23;17.10;99.90
13462;DHT22;6803;45.264;5.468;2023-06-10T00:52:55;17.10;99.90
13462;DHT22;6803;45.264;5.468;2023-06-10T00:55:26;17.00;99.90
13462;DHT22;6803;45.264;5.468;2023-06-10T00:57:57;17.00;99.90
13462;DHT22;6803;45.264;5.468;2023-06-10T01:00:27;17.00;99.90
13462;DHT22;6803;45.264;5.468;2023-06-10T01:02:58;17.00;99.90
13462;DHT22;6803;45.264;5.468;2023-06-10T01:05:29;16.90;99.90
13462;DHT22;6803;45.264;5.468;2023-06-10T01:08:03;16.80;99.90
13462;DHT22;6803;45.264;5.468;2023-06-10T01:10:37;16.80;99.90
13462;DHT22;6803;45.264;5.468;2023-06-10T01:13:10;16.80;99.90
13462;DHT22;6803;45.264;5.468;2023-06-10T01:15:42;16.80;99.90
13462;DHT22;6803;45.264;5.468;2023-06-10T01:18:13;16.80;99.90
13462;DHT22;6803;45.264;5.468;2023-06-10T01:20:46;16.90;99.90
13462;DHT22;6803;45.264;5.468;2023-06-10T01:23:19;16.90;99.90
13462;DHT22;6803;45.264;5.468;2023-06-10T01:28:33;17.10;99.90
13462;DHT22;6803;45.264;5.468;2023-06-10T01:31:08;17.00;99.90
13462;DHT22;6803;45.264;5.468;2023-06-10T01:33:42;17.00;99.90
13462;DHT22;6803;45.264;5.468;2023-06-10T01:36:13;16.90;99.90
13462;DHT22;6803;45.264;5.468;2023-06-10T01:38:47;16.90;99.90
13462;DHT22;6803;45.264;5.468;2023-06-10T01:41:19;16.90;99.90
13462;DHT22;6803;45.264;5.468;2023-06-10T01:43:51;16.80;99.90
13462;DHT22;6803;45.264;5.468;2023-06-10T01:46:22;16.80;99.90
13462;DHT22;6803;45.264;5.468;2023-06-10T01:48:53;16.80;99.90
13462;DHT22;6803;45.264;5.468;2023-06-10T01:51:23;16.80;99.90
13462;DHT22;6803;45.264;5.468;2023-06-10T01:53:54;16.70;99.90
13462;DHT22;6803;45.264;5.468;2023-06-10T01:56:25;16.70;99.90
13462;DHT22;6803;45.264;5.468;2023-06-10T01:58:55;16.70;99.90
13462;DHT22;6803;45.264;5.468;2023-06-10T02:01:28;16.70;99.90
13462;DHT22;6803;45.264;5.468;2023-06-10T02:03:59;16.70;99.90
13462;DHT22;6803;45.264;5.468;2023-06-10T02:06:29;16.70;99.90
13462;DHT22;6803;45.264;5.468;2023-06-10T02:09:00;16.70;99.90
13462;DHT22;6803;45.264;5.468;2023-06-10T02:11:31;16.80;99.90
13462;DHT22;6803;45.264;5.468;2023-06-10T02:14:02;16.80;99.90
13462;DHT22;6803;45.264;5.468;2023-06-10T02:16:33;16.80;99.90
13462;DHT22;6803;45.264;5.468;2023-06-10T02:19:04;16.80;99.90
13462;DHT22;6803;45.264;5.468;2023-06-10T02:21:35;16.80;99.90
13462;DHT22;6803;45.264;5.468;2023-06-10T02:24:08;16.80;99.90
13462;DHT22;6803;45.264;5.468;2023-06-10T02:26:39;16.80;99.90
13462;DHT22;6803;45.264;5.468;2023-06-10T02:29:10;16.80;99.90
13462;DHT22;6803;45.264;5.468;2023-06-10T02:31:41;16.70;99.90
13462;DHT22;6803;45.264;5.468;2023-06-10T02:34:11;16.70;99.90
13462;DHT22;6803;45.264;5.468;2023-06-10T02:36:42;16.70;99.90
13462;DHT22;6803;45.264;5.468;2023-06-10T02:39:13;16.80;99.90
13462;DHT22;6803;45.264;5.468;2023-06-10T02:41:43;16.80;99.90
13462;DHT22;6803;45.264;5.468;2023-06-10T02:44:14;16.90;99.90
13462;DHT22;6803;45.264;5.468;2023-06-10T02:46:45;17.00;99.90
13462;DHT22;6803;45.264;5.468;2023-06-10T02:49:16;17.00;99.90
13462;DHT22;6803;45.264;5.468;2023-06-10T02:51:46;17.00;99.90
13462;DHT22;6803;45.264;5.468;2023-06-10T02:54:17;17.00;99.90
13462;DHT22;6803;45.264;5.468;2023-06-10T02:56:48;17.00;99.90
13462;DHT22;6803;45.264;5.468;2023-06-10T02:59:19;17.00;99.90
13462;DHT22;6803;45.264;5.468;2023-06-10T03:01:50;16.90;99.90
13462;DHT22;6803;45.264;5.468;2023-06-10T03:04:21;16.80;99.90
13462;DHT22;6803;45.264;5.468;2023-06-10T03:06:53;16.70;99.90
13462;DHT22;6803;45.264;5.468;2023-06-10T03:09:23;16.70;99.90
13462;DHT22;6803;45.264;5.468;2023-06-10T03:11:54;16.70;99.90
13462;DHT22;6803;45.264;5.468;2023-06-10T03:14:26;16.80;99.90
13462;DHT22;6803;45.264;5.468;2023-06-10T03:16:57;16.80;99.90
13462;DHT22;6803;45.264;5.468;2023-06-10T03:19:28;16.70;99.90
13462;DHT22;6803;45.264;5.468;2023-06-10T03:22:08;16.60;99.90
13462;DHT22;6803;45.264;5.468;2023-06-10T03:24:39;16.60;99.90
13462;DHT22;6803;45.264;5.468;2023-06-10T03:27:10;16.70;99.90
13462;DHT22;6803;45.264;5.468;2023-06-10T03:29:41;16.60;99.90
13462;DHT22;6803;45.264;5.468;2023-06-10T03:32:12;16.50;99.90
13462;DHT22;6803;45.264;5.468;2023-06-10T03:34:42;16.50;99.90
13462;DHT22;6803;45.264;5.468;2023-06-10T03:37:14;16.50;99.90
13462;DHT22;6803;45.264;5.468;2023-06-10T03:39:45;16.50;99.90
13462;DHT22;6803;45.264;5.468;2023-06-10T03:42:16;16.50;99.90
13462;DHT22;6803;45.264;5.468;2023-06-10T03:44:47;16.50;99.90
13462;DHT22;6803;45.264;5.468;2023-06-10T03:47:17;16.60;99.90
13462;DHT22;6803;45.264;5.468;2023-06-10T03:49:48;16.60;99.90
13462;DHT22;6803;45.264;5.468;2023-06-10T03:52:19;16.60;99.90
13462;DHT22;6803;45.264;5.468;2023-06-10T03:54:49;16.60;99.90
13462;DHT22;6803;45.264;5.468;2023-06-10T03:57:20;16.60;99.90
13462;DHT22;6803;45.264;5.468;2023-06-10T03:59:51;16.50;99.90
13462;DHT22;6803;45.264;5.468;2023-06-10T04:02:21;16.60;99.90
13462;DHT22;6803;45.264;5.468;2023-06-10T04:04:52;16.70;99.90
13462;DHT22;6803;45.264;5.468;2023-06-10T04:07:23;16.70;99.90
13462;DHT22;6803;45.264;5.468;2023-06-10T04:09:56;16.70;99.90
13462;DHT22;6803;45.264;5.468;2023-06-10T04:12:26;16.70;99.90
13462;DHT22;6803;45.264;5.468;2023-06-10T04:14:57;16.80;99.90
13462;DHT22;6803;45.264;5.468;2023-06-10T04:17:29;16.70;99.90
13462;DHT22;6803;45.264;5.468;2023-06-10T04:20:00;16.80;99.90
13462;DHT22;6803;45.264;5.468;2023-06-10T04:22:30;16.80;99.90
13462;DHT22;6803;45.264;5.468;2023-06-10T04:25:01;16.80;99.90
13462;DHT22;6803;45.264;5.468;2023-06-10T04:27:32;16.80;99.90
13462;DHT22;6803;45.264;5.468;2023-06-10T04:30:04;16.80;99.90
13462;DHT22;6803;45.264;5.468;2023-06-10T04:32:37;16.90;99.90
13462;DHT22;6803;45.264;5.468;2023-06-10T04:35:11;16.80;99.90
13462;DHT22;6803;45.264;5.468;2023-06-10T04:37:43;16.90;99.90
13462;DHT22;6803;45.264;5.468;2023-06-10T04:40:14;16.80;99.90
13462;DHT22;6803;45.264;5.468;2023-06-10T04:42:45;16.80;99.90
13462;DHT22;6803;45.264;5.468;2023-06-10T04:45:16;16.80;99.90
13462;DHT22;6803;45.264;5.468;2023-06-10T04:47:46;16.80;99.90
13462;DHT22;6803;45.264;5.468;2023-06-10T04:50:17;16.80;99.90
13462;DHT22;6803;45.264;5.468;2023-06-10T04:52:48;16.80;99.90
13462;DHT22;6803;45.264;5.468;2023-06-10T04:55:19;16.80;99.90
13462;DHT22;6803;45.264;5.468;2023-06-10T04:57:50;16.90;99.90
13462;DHT22;6803;45.264;5.468;2023-06-10T05:00:21;16.70;99.90
13462;DHT22;6803;45.264;5.468;2023-06-10T05:02:52;16.90;99.90
13462;DHT22;6803;45.264;5.468;2023-06-10T05:05:23;17.00;99.90
13462;DHT22;6803;45.264;5.468;2023-06-10T05:07:54;17.00;99.90
13462;DHT22;6803;45.264;5.468;2023-06-10T05:10:25;17.10;99.90
13462;DHT22;6803;45.264;5.468;2023-06-10T05:12:56;17.20;99.90
13462;DHT22;6803;45.264;5.468;2023-06-10T05:15:27;17.20;99.90
13462;DHT22;6803;45.264;5.468;2023-06-10T05:17:58;17.20;99.90
13462;DHT22;6803;45.264;5.468;2023-06-10T05:20:29;17.20;99.90
13462;DHT22;6803;45.264;5.468;2023-06-10T05:23:00;17.20;99.90
13462;DHT22;6803;45.264;5.468;2023-06-10T05:25:32;17.10;99.90
13462;DHT22;6803;45.264;5.468;2023-06-10T05:28:03;17.20;99.90
13462;DHT22;6803;45.264;5.468;2023-06-10T05:30:35;17.30;99.90
13462;DHT22;6803;45.264;5.468;2023-06-10T05:33:06;17.40;99.90
13462;DHT22;6803;45.264;5.468;2023-06-10T05:35:38;17.50;99.90
13462;DHT22;6803;45.264;5.468;2023-06-10T05:38:08;17.60;99.90
13462;DHT22;6803;45.264;5.468;2023-06-10T05:40:39;17.80;99.90
13462;DHT22;6803;45.264;5.468;2023-06-10T05:43:10;17.80;99.90
13462;DHT22;6803;45.264;5.468;2023-06-10T05:45:40;18.00;99.90
13462;DHT22;6803;45.264;5.468;2023-06-10T05:48:11;18.20;99.90
13462;DHT22;6803;45.264;5.468;2023-06-10T05:50:42;18.20;99.90
13462;DHT22;6803;45.264;5.468;2023-06-10T05:53:14;18.40;99.90
13462;DHT22;6803;45.264;5.468;2023-06-10T05:55:46;18.40;99.90
13462;DHT22;6803;45.264;5.468;2023-06-10T05:58:16;18.30;99.90
13462;DHT22;6803;45.264;5.468;2023-06-10T06:00:47;18.30;99.90
13462;DHT22;6803;45.264;5.468;2023-06-10T06:03:18;18.20;99.90
13462;DHT22;6803;45.264;5.468;2023-06-10T06:05:49;18.20;99.90
13462;DHT22;6803;45.264;5.468;2023-06-10T06:08:20;18.20;99.90
13462;DHT22;6803;45.264;5.468;2023-06-10T06:10:51;18.40;99.90
13462;DHT22;6803;45.264;5.468;2023-06-10T06:13:21;18.40;99.90
13462;DHT22;6803;45.264;5.468;2023-06-10T06:15:52;18.50;99.90
13462;DHT22;6803;45.264;5.468;2023-06-10T06:18:23;18.40;99.90
13462;DHT22;6803;45.264;5.468;2023-06-10T06:20:54;18.40;99.90
13462;DHT22;6803;45.264;5.468;2023-06-10T06:23:24;18.50;99.90
13462;DHT22;6803;45.264;5.468;2023-06-10T06:25:55;18.50;99.90
13462;DHT22;6803;45.264;5.468;2023-06-10T06:28:26;18.60;99.90
13462;DHT22;6803;45.264;5.468;2023-06-10T06:30:58;18.80;99.90
13462;DHT22;6803;45.264;5.468;2023-06-10T06:33:29;18.80;99.90
13462;DHT22;6803;45.264;5.468;2023-06-10T06:36:00;19.00;99.90
13462;DHT22;6803;45.264;5.468;2023-06-10T06:38:31;19.00;99.90
13462;DHT22;6803;45.264;5.468;2023-06-10T06:41:02;19.00;99.90
13462;DHT22;6803;45.264;5.468;2023-06-10T06:43:34;19.10;99.90
13462;DHT22;6803;45.264;5.468;2023-06-10T06:46:05;19.10;99.90
13462;DHT22;6803;45.264;5.468;2023-06-10T06:48:36;18.80;99.90
13462;DHT22;6803;45.264;5.468;2023-06-10T06:51:07;18.80;99.90
13462;DHT22;6803;45.264;5.468;2023-06-10T06:53:38;19.00;99.90
13462;DHT22;6803;45.264;5.468;2023-06-10T06:56:10;19.20;99.90
13462;DHT22;6803;45.264;5.468;2023-06-10T06:58:41;19.40;99.90
13462;DHT22;6803;45.264;5.468;2023-06-10T07:01:12;19.30;99.90
13462;DHT22;6803;45.264;5.468;2023-06-10T07:03:43;19.10;99.90
13462;DHT22;6803;45.264;5.468;2023-06-10T07:06:14;19.10;99.90
13462;DHT22;6803;45.264;5.468;2023-06-10T07:08:44;19.10;99.90
13462;DHT22;6803;45.264;5.468;2023-06-10T07:11:15;19.20;99.90
13462;DHT22;6803;45.264;5.468;2023-06-10T07:13:46;19.40;99.90
13462;DHT22;6803;45.264;5.468;2023-06-10T07:16:17;19.50;99.90
13462;DHT22;6803;45.264;5.468;2023-06-10T07:18:50;19.60;99.90
13462;DHT22;6803;45.264;5.468;2023-06-10T07:21:20;19.80;99.90
13462;DHT22;6803;45.264;5.468;2023-06-10T07:23:52;19.80;99.90
13462;DHT22;6803;45.264;5.468;2023-06-10T07:26:23;20.00;99.90
13462;DHT22;6803;45.264;5.468;2023-06-10T07:28:55;20.10;99.90
13462;DHT22;6803;45.264;5.468;2023-06-10T07:31:25;20.10;99.90
13462;DHT22;6803;45.264;5.468;2023-06-10T07:33:56;20.40;99.90
13462;DHT22;6803;45.264;5.468;2023-06-10T07:36:27;20.80;99.90
13462;DHT22;6803;45.264;5.468;2023-06-10T07:38:58;21.10;99.90
13462;DHT22;6803;45.264;5.468;2023-06-10T07:41:29;21.20;99.90
13462;DHT22;6803;45.264;5.468;2023-06-10T07:44:00;21.30;99.90
13462;DHT22;6803;45.264;5.468;2023-06-10T07:46:30;21.20;99.90
13462;DHT22;6803;45.264;5.468;2023-06-10T07:49:01;21.30;99.90
13462;DHT22;6803;45.264;5.468;2023-06-10T07:51:32;20.90;99.90
13462;DHT22;6803;45.264;5.468;2023-06-10T07:54:03;21.20;99.90
13462;DHT22;6803;45.264;5.468;2023-06-10T07:56:34;21.70;99.90
13462;DHT22;6803;45.264;5.468;2023-06-10T07:59:04;22.10;99.90
13462;DHT22;6803;45.264;5.468;2023-06-10T08:01:35;22.10;99.90
13462;DHT22;6803;45.264;5.468;2023-06-10T08:04:07;22.20;99.90
13462;DHT22;6803;45.264;5.468;2023-06-10T08:06:39;22.00;99.90
13462;DHT22;6803;45.264;5.468;2023-06-10T08:09:09;22.20;99.90
13462;DHT22;6803;45.264;5.468;2023-06-10T08:11:40;22.20;99.90
13462;DHT22;6803;45.264;5.468;2023-06-10T08:14:11;22.20;99.90
13462;DHT22;6803;45.264;5.468;2023-06-10T08:16:42;22.00;99.90
13462;DHT22;6803;45.264;5.468;2023-06-10T08:19:13;21.60;99.90
13462;DHT22;6803;45.264;5.468;2023-06-10T08:21:44;21.40;99.90
13462;DHT22;6803;45.264;5.468;2023-06-10T08:24:15;21.50;99.90
13462;DHT22;6803;45.264;5.468;2023-06-10T08:27:06;21.80;99.90
13462;DHT22;6803;45.264;5.468;2023-06-10T08:29:37;21.90;99.90
13462;DHT22;6803;45.264;5.468;2023-06-10T08:32:08;22.20;99.90
13462;DHT22;6803;45.264;5.468;2023-06-10T08:34:40;22.00;99.90
13462;DHT22;6803;45.264;5.468;2023-06-10T08:37:11;22.20;99.90
13462;DHT22;6803;45.264;5.468;2023-06-10T08:39:41;22.60;99.90
13462;DHT22;6803;45.264;5.468;2023-06-10T08:42:16;22.70;99.90
13462;DHT22;6803;45.264;5.468;2023-06-10T08:44:47;22.50;99.90
13462;DHT22;6803;45.264;5.468;2023-06-10T08:47:22;22.60;99.90
13462;DHT22;6803;45.264;5.468;2023-06-10T08:49:53;22.40;99.90
13462;DHT22;6803;45.264;5.468;2023-06-10T08:52:27;22.70;99.90
13462;DHT22;6803;45.264;5.468;2023-06-10T08:55:03;22.90;99.90
13462;DHT22;6803;45.264;5.468;2023-06-10T08:57:32;23.30;99.90
13462;DHT22;6803;45.264;5.468;2023-06-10T09:00:07;23.40;99.90
13462;DHT22;6803;45.264;5.468;2023-06-10T09:02:39;22.70;99.90
13462;DHT22;6803;45.264;5.468;2023-06-10T09:05:11;22.40;99.90
13462;DHT22;6803;45.264;5.468;2023-06-10T09:07:42;22.60;99.90
13462;DHT22;6803;45.264;5.468;2023-06-10T09:10:14;22.90;99.90
13462;DHT22;6803;45.264;5.468;2023-06-10T09:12:44;23.10;99.90
13462;DHT22;6803;45.264;5.468;2023-06-10T09:15:15;23.30;99.90
13462;DHT22;6803;45.264;5.468;2023-06-10T09:17:47;23.10;99.90
13462;DHT22;6803;45.264;5.468;2023-06-10T09:20:18;23.20;99.90
13462;DHT22;6803;45.264;5.468;2023-06-10T09:22:50;23.70;99.90
13462;DHT22;6803;45.264;5.468;2023-06-10T09:28:00;24.50;99.90
13462;DHT22;6803;45.264;5.468;2023-06-10T09:30:33;24.00;99.90
13462;DHT22;6803;45.264;5.468;2023-06-10T09:33:09;24.30;99.90
13462;DHT22;6803;45.264;5.468;2023-06-10T09:38:24;24.70;99.90
13462;DHT22;6803;45.264;5.468;2023-06-10T09:40:56;25.00;99.90
13462;DHT22;6803;45.264;5.468;2023-06-10T09:43:39;24.50;99.90
13462;DHT22;6803;45.264;5.468;2023-06-10T09:46:16;24.20;99.90
13462;DHT22;6803;45.264;5.468;2023-06-10T09:48:48;24.80;99.90
13462;DHT22;6803;45.264;5.468;2023-06-10T09:53:49;24.90;99.90
13462;DHT22;6803;45.264;5.468;2023-06-10T09:56:21;25.40;99.90
13462;DHT22;6803;45.264;5.468;2023-06-10T09:58:54;26.30;99.90
13462;DHT22;6803;45.264;5.468;2023-06-10T10:01:25;26.30;99.90
13462;DHT22;6803;45.264;5.468;2023-06-10T10:03:56;25.00;99.90
13462;DHT22;6803;45.264;5.468;2023-06-10T10:06:27;24.00;99.90
13462;DHT22;6803;45.264;5.468;2023-06-10T10:08:58;23.70;99.90
13462;DHT22;6803;45.264;5.468;2023-06-10T10:11:30;23.40;99.90
13462;DHT22;6803;45.264;5.468;2023-06-10T10:16:42;23.40;99.90
13462;DHT22;6803;45.264;5.468;2023-06-10T10:19:16;23.30;99.90
13462;DHT22;6803;45.264;5.468;2023-06-10T10:21:50;23.40;99.90
13462;DHT22;6803;45.264;5.468;2023-06-10T10:24:23;23.30;99.90
13462;DHT22;6803;45.264;5.468;2023-06-10T10:26:56;23.10;99.90
13462;DHT22;6803;45.264;5.468;2023-06-10T10:29:30;23.00;99.90
13462;DHT22;6803;45.264;5.468;2023-06-10T10:32:02;22.60;99.90
13462;DHT22;6803;45.264;5.468;2023-06-10T10:34:36;22.10;99.90
13462;DHT22;6803;45.264;5.468;2023-06-10T10:37:08;21.30;99.90
13462;DHT22;6803;45.264;5.468;2023-06-10T10:39:41;21.30;99.90
13462;DHT22;6803;45.264;5.468;2023-06-10T10:42:12;21.10;99.90
13462;DHT22;6803;45.264;5.468;2023-06-10T10:44:44;21.00;99.90
13462;DHT22;6803;45.264;5.468;2023-06-10T10:47:16;20.90;99.90
13462;DHT22;6803;45.264;5.468;2023-06-10T10:49:51;20.50;99.90
13462;DHT22;6803;45.264;5.468;2023-06-10T10:52:23;20.80;99.90
13462;DHT22;6803;45.264;5.468;2023-06-10T10:54:54;20.90;99.90
13462;DHT22;6803;45.264;5.468;2023-06-10T10:57:28;21.00;99.90
13462;DHT22;6803;45.264;5.468;2023-06-10T10:59:58;20.90;99.90
13462;DHT22;6803;45.264;5.468;2023-06-10T11:02:40;21.00;99.90
13462;DHT22;6803;45.264;5.468;2023-06-10T11:05:14;21.00;99.90
13462;DHT22;6803;45.264;5.468;2023-06-10T11:07:54;21.20;99.90
13462;DHT22;6803;45.264;5.468;2023-06-10T11:10:32;21.00;99.90
13462;DHT22;6803;45.264;5.468;2023-06-10T11:13:08;21.30;99.90
13462;DHT22;6803;45.264;5.468;2023-06-10T11:15:45;21.50;99.90
13462;DHT22;6803;45.264;5.468;2023-06-10T11:18:22;21.70;99.90
13462;DHT22;6803;45.264;5.468;2023-06-10T11:20:58;22.20;99.90
13462;DHT22;6803;45.264;5.468;2023-06-10T11:23:48;22.50;99.90
13462;DHT22;6803;45.264;5.468;2023-06-10T11:26:29;22.80;99.90
13462;DHT22;6803;45.264;5.468;2023-06-10T11:29:08;23.00;99.90
13462;DHT22;6803;45.264;5.468;2023-06-10T11:31:50;23.40;99.90
13462;DHT22;6803;45.264;5.468;2023-06-10T11:34:25;23.40;99.90
13462;DHT22;6803;45.264;5.468;2023-06-10T11:36:57;23.30;99.90
13462;DHT22;6803;45.264;5.468;2023-06-10T11:39:29;23.50;99.90
13462;DHT22;6803;45.264;5.468;2023-06-10T11:42:01;23.80;99.90
13462;DHT22;6803;45.264;5.468;2023-06-10T11:44:32;23.90;99.90
13462;DHT22;6803;45.264;5.468;2023-06-10T11:47:05;24.00;99.90
13462;DHT22;6803;45.264;5.468;2023-06-10T11:49:35;24.40;99.90
13462;DHT22;6803;45.264;5.468;2023-06-10T11:52:07;24.30;99.90
13462;DHT22;6803;45.264;5.468;2023-06-10T11:54:38;24.60;99.90
13462;DHT22;6803;45.264;5.468;2023-06-10T11:57:09;25.60;99.90
13462;DHT22;6803;45.264;5.468;2023-06-10T11:59:40;26.10;99.90
13462;DHT22;6803;45.264;5.468;2023-06-10T12:07:38;27.60;99.90
13462;DHT22;6803;45.264;5.468;2023-06-10T12:10:09;27.10;99.90
13462;DHT22;6803;45.264;5.468;2023-06-10T12:12:42;26.90;99.90
13462;DHT22;6803;45.264;5.468;2023-06-10T12:15:24;26.70;99.90
13462;DHT22;6803;45.264;5.468;2023-06-10T12:17:56;27.30;99.90
13462;DHT22;6803;45.264;5.468;2023-06-10T12:20:28;27.90;99.90
13462;DHT22;6803;45.264;5.468;2023-06-10T12:23:08;27.80;99.90
13462;DHT22;6803;45.264;5.468;2023-06-10T12:25:43;28.00;99.90
13462;DHT22;6803;45.264;5.468;2023-06-10T12:28:14;27.40;99.90
13462;DHT22;6803;45.264;5.468;2023-06-10T12:30:47;26.20;99.90
13462;DHT22;6803;45.264;5.468;2023-06-10T12:33:19;25.30;99.90
13462;DHT22;6803;45.264;5.468;2023-06-10T12:35:51;24.50;99.90
13462;DHT22;6803;45.264;5.468;2023-06-10T12:38:23;24.20;99.90
13462;DHT22;6803;45.264;5.468;2023-06-10T12:41:02;23.90;99.90
13462;DHT22;6803;45.264;5.468;2023-06-10T12:43:33;23.70;99.90
13462;DHT22;6803;45.264;5.468;2023-06-10T12:46:10;23.60;99.90
13462;DHT22;6803;45.264;5.468;2023-06-10T12:48:51;23.50;99.90
13462;DHT22;6803;45.264;5.468;2023-06-10T12:51:24;23.40;99.90
13462;DHT22;6803;45.264;5.468;2023-06-10T12:53:55;23.30;99.90
13462;DHT22;6803;45.264;5.468;2023-06-10T12:56:26;23.20;99.90
13462;DHT22;6803;45.264;5.468;2023-06-10T12:58:56;23.30;99.90
13462;DHT22;6803;45.264;5.468;2023-06-10T13:01:28;24.40;99.90
13462;DHT22;6803;45.264;5.468;2023-06-10T13:04:01;25.40;99.90
13462;DHT22;6803;45.264;5.468;2023-06-10T13:06:33;26.20;99.90
13462;DHT22;6803;45.264;5.468;2023-06-10T13:09:06;27.40;99.90
13462;DHT22;6803;45.264;5.468;2023-06-10T13:11:37;27.70;99.90
13462;DHT22;6803;45.264;5.468;2023-06-10T13:14:09;27.00;99.90
13462;DHT22;6803;45.264;5.468;2023-06-10T13:16:40;26.30;99.90
13462;DHT22;6803;45.264;5.468;2023-06-10T13:19:13;25.60;99.90
13462;DHT22;6803;45.264;5.468;2023-06-10T13:21:44;25.30;99.90
13462;DHT22;6803;45.264;5.468;2023-06-10T13:24:16;25.00;99.90
13462;DHT22;6803;45.264;5.468;2023-06-10T13:26:47;25.10;99.90
13462;DHT22;6803;45.264;5.468;2023-06-10T13:29:20;25.00;99.90
13462;DHT22;6803;45.264;5.468;2023-06-10T13:31:52;25.50;99.90
13462;DHT22;6803;45.264;5.468;2023-06-10T13:34:23;27.10;99.90
13462;DHT22;6803;45.264;5.468;2023-06-10T13:36:57;28.70;99.90
13462;DHT22;6803;45.264;5.468;2023-06-10T13:39:28;29.40;99.90
13462;DHT22;6803;45.264;5.468;2023-06-10T13:41:59;29.00;99.90
13462;DHT22;6803;45.264;5.468;2023-06-10T13:44:31;27.00;99.90
13462;DHT22;6803;45.264;5.468;2023-06-10T13:47:03;26.50;99.90
13462;DHT22;6803;45.264;5.468;2023-06-10T13:49:35;25.40;99.90
13462;DHT22;6803;45.264;5.468;2023-06-10T13:52:08;25.80;99.90
13462;DHT22;6803;45.264;5.468;2023-06-10T13:54:39;26.00;99.90
13462;DHT22;6803;45.264;5.468;2023-06-10T13:57:11;25.80;99.90
13462;DHT22;6803;45.264;5.468;2023-06-10T13:59:45;25.60;99.90
13462;DHT22;6803;45.264;5.468;2023-06-10T14:02:16;25.20;99.90
13462;DHT22;6803;45.264;5.468;2023-06-10T14:04:47;24.60;99.90
13462;DHT22;6803;45.264;5.468;2023-06-10T14:07:18;24.70;99.90
13462;DHT22;6803;45.264;5.468;2023-06-10T14:09:51;24.60;99.90
13462;DHT22;6803;45.264;5.468;2023-06-10T14:12:22;24.80;99.90
13462;DHT22;6803;45.264;5.468;2023-06-10T14:14:53;24.90;99.90
13462;DHT22;6803;45.264;5.468;2023-06-10T14:17:24;25.10;99.90
13462;DHT22;6803;45.264;5.468;2023-06-10T14:19:55;25.00;99.90
13462;DHT22;6803;45.264;5.468;2023-06-10T14:22:26;24.90;99.90
13462;DHT22;6803;45.264;5.468;2023-06-10T14:24:58;24.50;99.90
13462;DHT22;6803;45.264;5.468;2023-06-10T14:27:29;24.60;99.90
13462;DHT22;6803;45.264;5.468;2023-06-10T14:30:00;24.50;99.90
13462;DHT22;6803;45.264;5.468;2023-06-10T14:32:32;24.30;99.90
13462;DHT22;6803;45.264;5.468;2023-06-10T14:35:05;24.30;99.90
13462;DHT22;6803;45.264;5.468;2023-06-10T14:37:38;24.20;99.90
13462;DHT22;6803;45.264;5.468;2023-06-10T14:40:13;23.80;99.90
13462;DHT22;6803;45.264;5.468;2023-06-10T14:42:46;23.70;99.90
13462;DHT22;6803;45.264;5.468;2023-06-10T14:45:17;23.80;99.90
13462;DHT22;6803;45.264;5.468;2023-06-10T14:47:48;23.50;99.90
13462;DHT22;6803;45.264;5.468;2023-06-10T14:50:19;23.40;99.90
13462;DHT22;6803;45.264;5.468;2023-06-10T14:52:53;23.70;99.90
13462;DHT22;6803;45.264;5.468;2023-06-10T14:55:24;24.30;99.90
13462;DHT22;6803;45.264;5.468;2023-06-10T14:57:56;24.80;99.90
13462;DHT22;6803;45.264;5.468;2023-06-10T15:00:27;25.50;99.90
13462;DHT22;6803;45.264;5.468;2023-06-10T15:02:58;25.80;99.90
13462;DHT22;6803;45.264;5.468;2023-06-10T15:05:30;25.90;99.90
13462;DHT22;6803;45.264;5.468;2023-06-10T15:08:03;26.70;99.90
13462;DHT22;6803;45.264;5.468;2023-06-10T15:10:34;26.30;99.90
13462;DHT22;6803;45.264;5.468;2023-06-10T15:13:06;25.40;99.90
13462;DHT22;6803;45.264;5.468;2023-06-10T15:15:37;24.80;99.90
13462;DHT22;6803;45.264;5.468;2023-06-10T15:18:08;24.20;99.90
13462;DHT22;6803;45.264;5.468;2023-06-10T15:20:40;23.90;99.90
13462;DHT22;6803;45.264;5.468;2023-06-10T15:23:13;23.80;99.90
13462;DHT22;6803;45.264;5.468;2023-06-10T15:25:45;23.60;99.90
13462;DHT22;6803;45.264;5.468;2023-06-10T15:28:17;23.60;99.90
13462;DHT22;6803;45.264;5.468;2023-06-10T15:30:48;23.60;99.90
13462;DHT22;6803;45.264;5.468;2023-06-10T15:33:19;23.70;99.90
13462;DHT22;6803;45.264;5.468;2023-06-10T15:35:53;24.50;99.90
13462;DHT22;6803;45.264;5.468;2023-06-10T15:38:25;24.30;99.90
13462;DHT22;6803;45.264;5.468;2023-06-10T15:40:57;23.60;99.90
13462;DHT22;6803;45.264;5.468;2023-06-10T15:43:28;23.70;99.90
13462;DHT22;6803;45.264;5.468;2023-06-10T15:45:59;24.30;99.90
13462;DHT22;6803;45.264;5.468;2023-06-10T15:48:30;25.80;99.90
13462;DHT22;6803;45.264;5.468;2023-06-10T15:51:03;26.30;99.90
13462;DHT22;6803;45.264;5.468;2023-06-10T15:53:34;26.40;99.90
13462;DHT22;6803;45.264;5.468;2023-06-10T15:56:08;26.10;99.90
13462;DHT22;6803;45.264;5.468;2023-06-10T15:58:38;24.80;99.90
13462;DHT22;6803;45.264;5.468;2023-06-10T16:01:10;23.90;99.90
13462;DHT22;6803;45.264;5.468;2023-06-10T16:03:41;23.90;99.90
13462;DHT22;6803;45.264;5.468;2023-06-10T16:06:12;23.60;99.90
13462;DHT22;6803;45.264;5.468;2023-06-10T16:08:44;23.30;99.90
13462;DHT22;6803;45.264;5.468;2023-06-10T16:11:16;23.20;99.90
13462;DHT22;6803;45.264;5.468;2023-06-10T16:13:47;23.20;99.90
13462;DHT22;6803;45.264;5.468;2023-06-10T16:16:18;23.10;99.90
13462;DHT22;6803;45.264;5.468;2023-06-10T16:18:49;23.10;99.90
13462;DHT22;6803;45.264;5.468;2023-06-10T16:21:19;23.80;99.90
13462;DHT22;6803;45.264;5.468;2023-06-10T16:23:50;25.10;99.90
13462;DHT22;6803;45.264;5.468;2023-06-10T16:26:21;25.40;99.90
13462;DHT22;6803;45.264;5.468;2023-06-10T16:28:52;24.70;99.90
13462;DHT22;6803;45.264;5.468;2023-06-10T16:31:23;24.40;99.90
13462;DHT22;6803;45.264;5.468;2023-06-10T16:33:54;23.90;99.90